createdAt,value
2017-10-15T00:01:09.402Z,102107.12
2017-10-15T00:03:44.692Z,102109.23
2017-10-15T00:06:19.645Z,102109.11
2017-10-15T00:08:54.581Z,102109.87
2017-10-15T00:11:29.342Z,102106.58
2017-10-15T00:14:04.465Z,102104.34
2017-10-15T00:16:39.125Z,102103.80
2017-10-15T00:19:14.269Z,102105.56
2017-10-15T00:21:49.130Z,102094.59
2017-10-15T00:24:24.007Z,102099.73
2017-10-15T00:26:58.904Z,102098.44
2017-10-15T00:29:33.901Z,102101.13
2017-10-15T00:32:08.836Z,102094.13
2017-10-15T00:34:43.576Z,102100.06
2017-10-15T00:37:18.597Z,102105.94
2017-10-15T00:39:53.765Z,102100.77
2017-10-15T00:42:28.301Z,102101.20
2017-10-15T00:45:03.606Z,102091.30
2017-10-15T00:47:38.733Z,102089.28
2017-10-15T00:50:13.248Z,102086.22
2017-10-15T00:52:48.670Z,102090.06
2017-10-15T00:55:23.293Z,102086.47
2017-10-15T00:57:57.381Z,102097.99
2017-10-15T01:00:31.796Z,102089.53
2017-10-15T01:03:06.714Z,102086.69
2017-10-15T01:05:41.529Z,102075.45
2017-10-15T01:08:16.493Z,102077.09
2017-10-15T01:10:51.341Z,102080.03
2017-10-15T01:13:26.237Z,102077.66
2017-10-15T01:16:00.946Z,102080.71
2017-10-15T01:18:36.006Z,102078.19
2017-10-15T01:21:11.290Z,102079.50
2017-10-15T01:23:45.942Z,102084.14
2017-10-15T01:26:21.124Z,102075.44
2017-10-15T01:28:56.027Z,102084.72
2017-10-15T01:31:30.842Z,102082.16
2017-10-15T01:34:05.153Z,102086.16
2017-10-15T01:36:39.258Z,102085.08
2017-10-15T01:39:14.132Z,102077.22
2017-10-15T01:41:48.281Z,102080.56
2017-10-15T01:44:22.393Z,102076.50
2017-10-15T01:46:57.413Z,102072.17
2017-10-15T01:49:31.673Z,102079.73
2017-10-15T01:52:06.261Z,102078.28
2017-10-15T01:54:41.656Z,102076.54
2017-10-15T01:57:16.554Z,102078.08
2017-10-15T01:59:51.118Z,102080.95
2017-10-15T02:02:25.445Z,102079.55
2017-10-15T02:05:00.093Z,102080.64
2017-10-15T02:07:34.509Z,102077.80
2017-10-15T02:10:08.577Z,102075.89
2017-10-15T02:12:42.782Z,102076.48
2017-10-15T02:15:17.098Z,102082.38
2017-10-15T02:17:52.477Z,102081.74
2017-10-15T02:20:27.041Z,102081.55
2017-10-15T02:23:01.722Z,102080.08
2017-10-15T02:25:35.994Z,102080.08
2017-10-15T02:28:11.348Z,102078.14
2017-10-15T02:30:46.526Z,102070.60
2017-10-15T02:33:21.502Z,102065.69
2017-10-15T02:35:56.426Z,102065.31
2017-10-15T02:38:31.130Z,102067.70
2017-10-15T02:41:05.904Z,102071.05
2017-10-15T02:43:41.214Z,102069.84
2017-10-15T02:46:15.597Z,102067.70
2017-10-15T02:48:49.885Z,102076.15
2017-10-15T02:51:24.355Z,102077.32
2017-10-15T02:53:59.325Z,102071.95
2017-10-15T02:56:34.262Z,102071.25
2017-10-15T02:59:08.953Z,102064.98
2017-10-15T03:01:43.818Z,102067.89
2017-10-15T03:04:19.166Z,102062.27
2017-10-15T03:06:54.193Z,102064.14
2017-10-15T03:09:29.253Z,102056.08
2017-10-15T03:12:04.630Z,102058.80
2017-10-15T03:14:39.630Z,102061.68
2017-10-15T03:17:14.837Z,102058.59
2017-10-15T03:19:49.625Z,102062.70
2017-10-15T03:22:24.741Z,102069.63
2017-10-15T03:24:59.825Z,102069.95
2017-10-15T03:27:34.729Z,102072.28
2017-10-15T03:30:09.145Z,102074.33
2017-10-15T03:32:43.939Z,102071.56
2017-10-15T03:35:18.858Z,102071.04
2017-10-15T03:37:54.333Z,102068.33
2017-10-15T03:40:28.844Z,102065.09
2017-10-15T03:43:03.893Z,102064.86
2017-10-15T03:45:38.793Z,102062.39
2017-10-15T03:48:13.627Z,102066.08
2017-10-15T03:50:48.229Z,102070.28
2017-10-15T03:53:22.782Z,102070.34
2017-10-15T03:55:57.745Z,102067.83
2017-10-15T03:58:32.507Z,102065.09
2017-10-15T04:01:07.468Z,102066.00
2017-10-15T04:03:43.241Z,102067.61
2017-10-15T04:06:17.437Z,102065.99
2017-10-15T04:08:52.021Z,102069.45
2017-10-15T04:11:27.057Z,102066.44
2017-10-15T04:14:01.378Z,102072.66
2017-10-15T04:16:35.809Z,102070.56
2017-10-15T04:19:10.908Z,102065.15
2017-10-15T04:21:45.564Z,102070.18
2017-10-15T04:24:20.501Z,102063.69
2017-10-15T04:26:55.538Z,102068.25
2017-10-15T04:29:30.230Z,102070.41
2017-10-15T04:32:05.277Z,102058.08
2017-10-15T04:34:40.214Z,102055.73
2017-10-15T04:37:15.293Z,102061.94
2017-10-15T04:39:50.470Z,102057.55
2017-10-15T04:42:25.529Z,102054.83
2017-10-15T04:45:00.677Z,102046.46
2017-10-15T04:47:35.705Z,102049.00
2017-10-15T04:50:10.241Z,102051.02
2017-10-15T04:52:44.910Z,102041.62
2017-10-15T04:55:20.046Z,102042.98
2017-10-15T04:57:54.916Z,102041.08
2017-10-15T05:00:29.298Z,102037.07
2017-10-15T05:03:03.666Z,102038.42
2017-10-15T05:05:38.585Z,102037.57
2017-10-15T05:08:13.521Z,102042.70
2017-10-15T05:10:48.457Z,102038.61
2017-10-15T05:13:23.221Z,102031.94
2017-10-15T05:15:58.369Z,102031.77
2017-10-15T05:18:33.553Z,102027.14
2017-10-15T05:21:07.785Z,102034.29
2017-10-15T05:23:43.125Z,102030.34
2017-10-15T05:26:18.386Z,102038.79
2017-10-15T05:28:53.534Z,102044.00
2017-10-15T05:31:27.990Z,102045.00
2017-10-15T05:34:02.838Z,102041.99
2017-10-15T05:36:37.657Z,102034.70
2017-10-15T05:39:12.668Z,102032.39
2017-10-15T05:41:47.581Z,102033.63
2017-10-15T05:44:22.449Z,102031.64
2017-10-15T05:46:57.093Z,102034.54
2017-10-15T05:49:31.740Z,102029.11
2017-10-15T05:52:06.877Z,102024.02
2017-10-15T05:54:41.880Z,102032.24
2017-10-15T05:57:16.817Z,102029.75
2017-10-15T05:59:51.964Z,102030.73
2017-10-15T06:02:27.059Z,102029.20
2017-10-15T06:05:01.440Z,102025.98
2017-10-15T06:07:36.753Z,102034.09
2017-10-15T06:10:11.705Z,102027.16
2017-10-15T06:12:46.736Z,102023.23
2017-10-15T06:15:21.787Z,102027.50
2017-10-15T06:17:56.253Z,102033.69
2017-10-15T06:20:30.590Z,102031.69
2017-10-15T06:23:05.517Z,102026.13
2017-10-15T06:25:39.588Z,102026.94
2017-10-15T06:28:14.670Z,102025.64
2017-10-15T06:30:49.693Z,102023.52
2017-10-15T06:33:24.674Z,102021.70
2017-10-15T06:35:59.726Z,102018.05
2017-10-15T06:38:34.187Z,102024.98
2017-10-15T06:41:09.001Z,102014.39
2017-10-15T06:43:44.257Z,102020.02
2017-10-15T06:46:18.985Z,102022.12
2017-10-15T06:48:53.970Z,102017.13
2017-10-15T06:51:29.131Z,102014.11
2017-10-15T06:54:04.130Z,102012.23
2017-10-15T06:56:39.298Z,102014.81
2017-10-15T06:59:13.943Z,102013.77
2017-10-15T07:01:48.987Z,102018.17
2017-10-15T07:04:23.713Z,102022.69
2017-10-15T07:06:58.918Z,102013.23
2017-10-15T07:09:33.958Z,102010.41
2017-10-15T07:12:08.858Z,102014.45
2017-10-15T07:14:43.947Z,102006.48
2017-10-15T07:17:18.988Z,102014.52
2017-10-15T07:19:54.401Z,102018.41
2017-10-15T07:22:29.851Z,102011.57
2017-10-15T07:25:04.906Z,102016.66
2017-10-15T07:27:39.658Z,102008.80
2017-10-15T07:30:14.720Z,102007.95
2017-10-15T07:32:49.642Z,102010.30
2017-10-15T07:35:24.982Z,102014.30
2017-10-15T07:37:59.937Z,102018.28
2017-10-15T07:40:34.881Z,102013.50
2017-10-15T07:43:09.807Z,102002.87
2017-10-15T07:45:44.867Z,102001.91
2017-10-15T07:48:19.907Z,102003.16
2017-10-15T07:50:55.745Z,101997.20
2017-10-15T07:53:31.094Z,101998.85
2017-10-15T07:56:06.378Z,101990.52
2017-10-15T07:58:41.223Z,101994.25
2017-10-15T08:01:16.225Z,101994.95
2017-10-15T08:03:51.460Z,101993.37
2017-10-15T08:06:26.013Z,101994.36
2017-10-15T08:09:00.529Z,101991.33
2017-10-15T08:11:35.745Z,101991.28
2017-10-15T08:14:10.891Z,101990.92
2017-10-15T08:16:45.824Z,101989.33
2017-10-15T08:19:24.037Z,101990.92
2017-10-15T08:21:58.965Z,101986.92
2017-10-15T08:24:33.958Z,101986.69
2017-10-15T08:27:08.860Z,101981.34
2017-10-15T08:29:43.883Z,101985.85
2017-10-15T08:32:19.037Z,101981.63
2017-10-15T08:34:53.604Z,101977.19
2017-10-15T08:37:28.634Z,101976.11
2017-10-15T08:40:03.622Z,101978.70
2017-10-15T08:42:38.411Z,101983.01
2017-10-15T08:45:13.174Z,101972.26
2017-10-15T08:47:48.641Z,101974.53
2017-10-15T08:50:23.829Z,101973.16
2017-10-15T08:52:59.079Z,101964.23
2017-10-15T08:55:34.302Z,101968.48
2017-10-15T08:58:09.009Z,101969.55
2017-10-15T09:00:43.317Z,101965.76
2017-10-15T09:03:17.522Z,101966.42
2017-10-15T09:05:52.143Z,101964.03
2017-10-15T09:08:27.512Z,101959.21
2017-10-15T09:11:02.353Z,101966.66
2017-10-15T09:13:37.182Z,101958.55
2017-10-15T09:16:12.032Z,101957.25
2017-10-15T09:18:47.109Z,101961.59
2017-10-15T09:21:22.034Z,101963.81
2017-10-15T09:23:56.580Z,101953.86
2017-10-15T09:26:31.618Z,101957.75
2017-10-15T09:29:06.360Z,101955.07
2017-10-15T09:31:41.385Z,101951.84
2017-10-15T09:34:15.906Z,101948.21
2017-10-15T09:36:50.480Z,101947.09
2017-10-15T09:39:24.989Z,101938.31
2017-10-15T09:42:00.733Z,101944.48
2017-10-15T09:44:35.258Z,101933.77
2017-10-15T09:47:09.797Z,101929.80
2017-10-15T09:49:44.229Z,101928.05
2017-10-15T09:52:18.648Z,101924.56
2017-10-15T09:54:53.455Z,101921.55
2017-10-15T09:57:27.956Z,101917.74
2017-10-15T10:00:02.623Z,101918.70
2017-10-15T10:02:37.517Z,101915.37
2017-10-15T10:05:12.321Z,101913.99
2017-10-15T10:07:47.054Z,101913.73
2017-10-15T10:10:21.986Z,101905.56
2017-10-15T10:12:57.834Z,101903.25
2017-10-15T10:15:32.971Z,101906.48
2017-10-15T10:18:08.590Z,101893.94
2017-10-15T10:20:43.421Z,101894.09
2017-10-15T10:23:18.353Z,101890.97
2017-10-15T10:25:53.077Z,101892.02
2017-10-15T10:28:27.972Z,101891.09
2017-10-15T10:31:02.989Z,101891.13
2017-10-15T10:33:38.084Z,101885.48
2017-10-15T10:36:12.773Z,101884.34
2017-10-15T10:38:48.093Z,101883.02
2017-10-15T10:41:23.458Z,101880.11
2017-10-15T10:43:58.902Z,101872.98
2017-10-15T10:46:33.909Z,101877.84
2017-10-15T10:49:09.271Z,101880.61
2017-10-15T10:51:43.757Z,101874.88
2017-10-15T10:54:18.741Z,101872.14
2017-10-15T10:56:53.465Z,101864.86
2017-10-15T10:59:28.198Z,101859.98
2017-10-15T11:02:03.611Z,101859.00
2017-10-15T11:04:38.044Z,101855.79
2017-10-15T11:07:13.025Z,101852.88
2017-10-15T11:09:48.180Z,101857.73
2017-10-15T11:12:22.928Z,101854.03
2017-10-15T11:14:57.928Z,101845.25
2017-10-15T11:17:32.925Z,101841.90
2017-10-15T11:20:08.068Z,101838.77
2017-10-15T11:22:43.101Z,101830.20
2017-10-15T11:25:17.901Z,101835.88
2017-10-15T11:27:53.125Z,101824.89
2017-10-15T11:30:28.157Z,101822.26
2017-10-15T11:33:03.361Z,101826.03
2017-10-15T11:35:38.369Z,101822.20
2017-10-15T11:38:13.493Z,101810.78
2017-10-15T11:40:48.645Z,101807.83
2017-10-15T11:43:23.185Z,101806.05
2017-10-15T11:45:57.580Z,101802.77
2017-10-15T11:48:32.381Z,101810.11
2017-10-15T11:51:07.321Z,101810.28
2017-10-15T11:53:42.441Z,101809.45
2017-10-15T11:56:17.229Z,101802.76
2017-10-15T11:58:52.084Z,101801.09
2017-10-15T12:01:28.356Z,101801.86
2017-10-15T12:04:02.817Z,101797.70
2017-10-15T12:06:37.765Z,101796.52
2017-10-15T12:09:12.689Z,101792.59
2017-10-15T12:11:47.473Z,101791.39
2017-10-15T12:14:22.216Z,101782.91
2017-10-15T12:16:57.149Z,101785.50
2017-10-15T12:19:31.941Z,101780.48
2017-10-15T12:22:07.189Z,101774.12
2017-10-15T12:24:42.288Z,101778.12
2017-10-15T12:27:16.788Z,101768.87
2017-10-15T12:29:51.892Z,101766.20
2017-10-15T12:32:27.225Z,101767.41
2017-10-15T12:35:02.473Z,101769.34
2017-10-15T12:37:37.257Z,101768.64
2017-10-15T12:40:12.405Z,101759.81
2017-10-15T12:42:47.512Z,101771.03
2017-10-15T12:45:22.514Z,101764.44
2017-10-15T12:47:57.425Z,101757.50
2017-10-15T12:50:32.422Z,101757.50
2017-10-15T12:53:07.553Z,101757.14
2017-10-15T12:55:42.757Z,101762.70
2017-10-15T12:58:17.689Z,101762.31
2017-10-15T13:00:52.361Z,101756.40
2017-10-15T13:03:27.393Z,101760.05
2017-10-15T13:06:02.345Z,101751.19
2017-10-15T13:08:37.554Z,101750.95
2017-10-15T13:11:12.400Z,101751.32
2017-10-15T13:13:47.161Z,101744.80
2017-10-15T13:16:22.192Z,101750.48
2017-10-15T13:18:57.121Z,101740.99
2017-10-15T13:21:32.140Z,101741.64
2017-10-15T13:24:07.054Z,101739.59
2017-10-15T13:26:41.949Z,101732.38
2017-10-15T13:29:17.208Z,101730.58
2017-10-15T13:31:52.677Z,101731.78
2017-10-15T13:34:27.717Z,101735.17
2017-10-15T13:37:02.578Z,101729.82
2017-10-15T13:39:37.237Z,101725.75
2017-10-15T13:42:11.654Z,101724.09
2017-10-15T13:44:46.888Z,101717.36
2017-10-15T13:47:21.982Z,101715.17
2017-10-15T13:49:56.413Z,101715.48
2017-10-15T13:52:31.361Z,101709.91
2017-10-15T13:55:06.345Z,101704.97
2017-10-15T13:57:40.973Z,101702.48
2017-10-15T14:00:16.143Z,101694.27
2017-10-15T14:02:51.168Z,101689.67
2017-10-15T14:05:26.345Z,101688.33
2017-10-15T14:08:01.068Z,101688.48
2017-10-15T14:10:35.593Z,101685.17
2017-10-15T14:13:10.913Z,101684.11
2017-10-15T14:15:45.817Z,101685.61
2017-10-15T14:18:21.197Z,101691.23
2017-10-15T14:20:56.009Z,101687.72
2017-10-15T14:23:31.028Z,101688.09
2017-10-15T14:26:05.869Z,101690.52
2017-10-15T14:28:40.791Z,101694.63
2017-10-15T14:31:15.748Z,101688.84
2017-10-15T14:33:50.457Z,101687.18
2017-10-15T14:36:25.542Z,101687.23
2017-10-15T14:39:00.576Z,101688.48
2017-10-15T14:41:35.202Z,101675.15
2017-10-15T14:44:09.937Z,101682.27
2017-10-15T14:46:44.969Z,101683.17
2017-10-15T14:49:19.869Z,101686.00
2017-10-15T14:51:54.929Z,101683.84
2017-10-15T14:54:29.524Z,101686.63
2017-10-15T14:57:04.341Z,101685.73
2017-10-15T14:59:39.952Z,101681.05
2017-10-15T15:02:15.169Z,101680.76
2017-10-15T15:04:50.181Z,101675.73
2017-10-15T15:07:25.065Z,101670.63
2017-10-15T15:10:00.249Z,101674.04
2017-10-15T15:12:35.313Z,101672.16
2017-10-15T15:15:10.236Z,101674.31
2017-10-15T15:17:45.217Z,101665.27
2017-10-15T15:20:20.048Z,101677.55
2017-10-15T15:22:54.899Z,101671.25
2017-10-15T15:25:29.621Z,101670.59
2017-10-15T15:28:04.253Z,101668.89
2017-10-15T15:30:38.641Z,101669.16
2017-10-15T15:33:13.934Z,101665.94
2017-10-15T15:35:48.809Z,101669.41
2017-10-15T15:38:24.133Z,101661.99
2017-10-15T15:40:59.401Z,101659.60
2017-10-15T15:43:34.366Z,101659.66
2017-10-15T15:46:09.370Z,101664.26
2017-10-15T15:48:44.165Z,101659.88
2017-10-15T15:51:19.100Z,101657.06
2017-10-15T15:53:53.997Z,101657.02
2017-10-15T15:56:28.904Z,101657.81
2017-10-15T15:59:04.101Z,101659.56
2017-10-15T16:01:39.125Z,101653.45
2017-10-15T16:04:14.282Z,101650.41
2017-10-15T16:06:49.437Z,101653.25
2017-10-15T16:09:24.692Z,101652.28
2017-10-15T16:11:59.592Z,101652.73
2017-10-15T16:14:34.785Z,101649.75
2017-10-15T16:17:09.445Z,101653.09
2017-10-15T16:19:45.005Z,101648.11
2017-10-15T16:22:20.029Z,101645.52
2017-10-15T16:24:55.060Z,101649.39
2017-10-15T16:27:29.689Z,101652.28
2017-10-15T16:30:04.451Z,101652.75
2017-10-15T16:32:39.529Z,101654.58
2017-10-15T16:35:14.061Z,101645.78
2017-10-15T16:37:49.169Z,101645.62
2017-10-15T16:40:24.213Z,101647.94
2017-10-15T16:42:59.141Z,101643.91
2017-10-15T16:45:34.272Z,101648.95
2017-10-15T16:48:09.202Z,101645.87
2017-10-15T16:50:44.208Z,101649.97
2017-10-15T16:53:19.054Z,101657.65
2017-10-15T16:55:54.142Z,101659.23
2017-10-15T16:58:28.966Z,101655.77
2017-10-15T17:01:03.581Z,101656.20
2017-10-15T17:03:38.692Z,101656.44
2017-10-15T17:08:47.621Z,101654.05
2017-10-15T17:11:22.400Z,101657.72
2017-10-15T17:13:57.322Z,101655.95
2017-10-15T17:16:32.345Z,101652.16
2017-10-15T17:19:07.189Z,101657.69
2017-10-15T17:21:41.506Z,101652.12
2017-10-15T17:24:16.417Z,101657.88
2017-10-15T17:26:51.350Z,101658.80
2017-10-15T17:29:26.681Z,101653.54
2017-10-15T17:32:01.868Z,101656.89
2017-10-15T17:34:36.777Z,101656.31
2017-10-15T17:37:11.400Z,101661.33
2017-10-15T17:39:46.586Z,101654.83
2017-10-15T17:42:21.693Z,101664.44
2017-10-15T17:44:56.597Z,101660.03
2017-10-15T17:47:32.030Z,101663.22
2017-10-15T17:50:07.079Z,101663.30
2017-10-15T17:52:41.800Z,101666.05
2017-10-15T17:55:16.621Z,101660.67
2017-10-15T17:57:51.681Z,101651.58
2017-10-15T18:00:25.807Z,101653.20
2017-10-15T18:03:00.071Z,101652.48
2017-10-15T18:05:35.428Z,101656.86
2017-10-15T18:08:10.345Z,101647.13
2017-10-15T18:10:45.156Z,101647.92
2017-10-15T18:13:19.725Z,101645.49
2017-10-15T18:15:55.141Z,101645.32
2017-10-15T18:18:30.322Z,101643.67
2017-10-15T18:21:04.981Z,101641.39
2017-10-15T18:23:40.281Z,101643.16
2017-10-15T18:26:15.280Z,101645.91
2017-10-15T18:28:50.469Z,101645.01
2017-10-15T18:31:25.741Z,101633.54
2017-10-15T18:34:01.021Z,101643.63
2017-10-15T18:36:36.069Z,101642.80
2017-10-15T18:39:11.001Z,101640.23
2017-10-15T18:41:46.077Z,101644.22
2017-10-15T18:44:21.333Z,101639.38
2017-10-15T18:46:56.204Z,101637.25
2017-10-15T18:49:31.536Z,101637.34
2017-10-15T18:52:06.019Z,101639.74
2017-10-15T18:54:40.852Z,101645.48
2017-10-15T18:57:15.774Z,101643.50
2017-10-15T18:59:50.858Z,101644.52
2017-10-15T19:02:25.657Z,101642.87
2017-10-15T19:05:00.550Z,101644.95
2017-10-15T19:07:35.585Z,101644.02
2017-10-15T19:10:10.405Z,101642.09
2017-10-15T19:12:45.256Z,101644.39
2017-10-15T19:15:20.196Z,101638.42
2017-10-15T19:17:54.917Z,101645.90
2017-10-15T19:20:29.844Z,101641.86
2017-10-15T19:23:04.961Z,101644.17
2017-10-15T19:25:40.025Z,101645.10
2017-10-15T19:28:15.264Z,101644.18
2017-10-15T19:30:50.254Z,101641.44
2017-10-15T19:33:25.227Z,101646.02
2017-10-15T19:36:00.265Z,101642.16
2017-10-15T19:38:35.167Z,101642.36
2017-10-15T19:41:10.234Z,101641.36
2017-10-15T19:43:45.370Z,101641.88
2017-10-15T19:46:20.369Z,101636.34
2017-10-15T19:48:55.564Z,101643.97
2017-10-15T19:51:30.705Z,101640.08
2017-10-15T19:54:05.480Z,101638.44
2017-10-15T19:56:40.341Z,101643.02
2017-10-15T19:59:15.266Z,101638.91
2017-10-15T20:01:49.989Z,101638.91
2017-10-15T20:04:24.820Z,101640.63
2017-10-15T20:07:00.351Z,101636.41
2017-10-15T20:09:35.065Z,101636.48
2017-10-15T20:12:09.961Z,101636.69
2017-10-15T20:14:44.943Z,101648.13
2017-10-15T20:17:19.193Z,101642.91
2017-10-15T20:19:54.709Z,101644.02
2017-10-15T20:22:29.865Z,101645.40
2017-10-15T20:25:04.907Z,101645.59
2017-10-15T20:27:40.007Z,101645.53
2017-10-15T20:30:15.026Z,101652.34
2017-10-15T20:32:50.006Z,101649.41
2017-10-15T20:35:25.062Z,101649.88
2017-10-15T20:38:00.006Z,101650.94
2017-10-15T20:40:34.833Z,101639.70
2017-10-15T20:43:09.950Z,101648.48
2017-10-15T20:45:44.777Z,101645.98
2017-10-15T20:48:19.826Z,101642.83
2017-10-15T20:50:54.856Z,101648.98
2017-10-15T20:53:30.294Z,101645.16
2017-10-15T20:56:05.526Z,101652.89
2017-10-15T20:58:40.374Z,101651.72
2017-10-15T21:01:15.634Z,101651.67
2017-10-15T21:03:50.649Z,101651.94
2017-10-15T21:06:25.737Z,101660.98
2017-10-15T21:09:00.049Z,101654.70
2017-10-15T21:11:35.109Z,101657.27
2017-10-15T21:14:10.079Z,101662.23
2017-10-15T21:16:45.321Z,101660.46
2017-10-15T21:19:20.678Z,101655.53
2017-10-15T21:21:56.020Z,101659.54
2017-10-15T21:24:31.053Z,101664.06
2017-10-15T21:27:06.258Z,101660.02
2017-10-15T21:29:41.481Z,101662.16
2017-10-15T21:32:16.180Z,101659.44
2017-10-15T21:34:50.858Z,101663.04
2017-10-15T21:37:25.570Z,101667.05
2017-10-15T21:40:00.168Z,101666.86
2017-10-15T21:42:34.791Z,101666.23
2017-10-15T21:45:09.421Z,101671.97
2017-10-15T21:47:44.473Z,101673.45
2017-10-15T21:50:18.988Z,101675.98
2017-10-15T21:52:54.337Z,101675.91
2017-10-15T21:55:29.145Z,101683.19
2017-10-15T21:58:04.214Z,101683.01
2017-10-15T22:00:39.129Z,101687.34
2017-10-15T22:03:14.069Z,101677.67
2017-10-15T22:05:49.169Z,101683.34
2017-10-15T22:08:24.020Z,101680.44
2017-10-15T22:10:59.691Z,101682.61
2017-10-15T22:13:34.769Z,101675.95
2017-10-15T22:16:10.073Z,101676.24
2017-10-15T22:18:50.299Z,101677.86
2017-10-15T22:34:47.744Z,101665.31
2017-10-15T22:37:22.748Z,101656.94
2017-10-15T22:39:58.616Z,101648.84
2017-10-15T22:42:34.182Z,101646.94
2017-10-15T22:45:08.862Z,101653.63
2017-10-15T22:47:43.674Z,101653.87
2017-10-15T22:50:18.302Z,101655.41
2017-10-15T22:52:52.789Z,101648.75
2017-10-15T22:55:27.441Z,101645.11
2017-10-15T22:58:02.338Z,101646.64
2017-10-15T23:00:36.737Z,101646.94
2017-10-15T23:03:11.693Z,101654.33
2017-10-15T23:05:46.545Z,101649.52
2017-10-15T23:08:21.225Z,101650.19
2017-10-15T23:10:55.998Z,101646.20
2017-10-15T23:13:30.853Z,101647.81
2017-10-15T23:16:05.724Z,101655.98
2017-10-15T23:18:40.485Z,101658.27
2017-10-15T23:21:16.165Z,101665.66
2017-10-15T23:23:50.868Z,101665.55
2017-10-15T23:26:25.341Z,101673.80
2017-10-15T23:29:00.529Z,101673.21
2017-10-15T23:31:35.230Z,101680.02
2017-10-15T23:34:10.229Z,101676.89
2017-10-15T23:36:44.597Z,101672.16
2017-10-15T23:39:19.337Z,101676.35
2017-10-15T23:41:54.093Z,101676.72
2017-10-15T23:44:28.921Z,101669.33
2017-10-15T23:47:03.855Z,101677.37
2017-10-15T23:49:38.606Z,101684.88
2017-10-15T23:52:13.228Z,101675.88
2017-10-15T23:54:47.932Z,101680.66
2017-10-15T23:57:22.577Z,101675.62
2017-10-15T23:59:57.665Z,101678.30
